Terminal Aerodrome Forecast
Issued by NWS

Home | Current Version | Previous Version | Text Only | Print | Product List | Glossary On
Versions: 1 2 3 4 5 6 7 8 9 10 11 12 13 14 15 16 17 18
000
FTUS46 KLOX 301128
TAFPRB
TAF
KPRB 301128Z 3012/3112 VRB03KT P6SM SCT150
     FM302100 21012KT P6SM BKN100
     FM302300 21015G22KT P6SM SCT060 BKN100
     FM310200 21010KT P6SM BKN100
     FM310500 VRB03KT P6SM BKN080=

USA.gov is the U.S. government's official web portal to all federal, state and local government web resources and services.